Chicago, IL

10:50 PM CDT on August 27, 2014 (GMT -0500)
West Loop - Old St. Pats | Change Station
CLOSE
Current Station
Personal Weather Station
Location: Chicago, IL
Elevation: 548 ft
Nearby Weather Stations

Elev 548 ft 41.88 °N, 87.64 °W | Updated 3 minutes ago

Partly Cloudy
Partly Cloudy
70.8 °F
Feels Like 72 °F
N
0.0
Wind Variable Wind from West
Gusts 1.0 mph

Today
High -- | Low -- °F
--% Chance of Precip.
Yesterday
High -- | Low -- °F
Precip. -- in
6:11 AM 7:32 PM
Waxing Crescent, 6% visible
Pressure 30.13 in
Visibility 10.0 miles
Clouds Clear
Heat Index 72 °F
Dew Point 64 °F
Humidity 79%
Rainfall 0.00 in
Snow Depth Not available.
UV 0 out of 12
Pollen 8.80 out of 12
Ozone Good
PM2.5 Good
Flu Activity Not available.
METAR KMDW 280251Z 07006KT 10SM CLR 22/17 A3013

More Conditions Fewer Conditions

Pressure 30.13 in
Visibility 10.0 miles
Clouds Clear
Heat Index 72 °F
Dew Point 64 °F
Humidity 79%
Rainfall 0.00 in
Snow Depth Not available.
UV 0 out of 12
Pollen 8.80 out of 12
Ozone Good
PM2.5 Good
Flu Activity Not available.
METAR KMDW 280251Z 07006KT 10SM CLR 22/17 A3013

More Conditions Fewer Conditions

10-Day Weather Forecast

Almanac

Astronomy

Aug. 27, 2014 Rise Set
Actual Time 6:11 AM CDT 7:32 PM CDT
Civil Twilight 5:42 AM CDT 8:01 PM CDT
Nautical Twilight 5:07 AM CDT 8:35 PM CDT
Astronomical Twilight 4:30 AM CDT 9:12 PM CDT
Moon 8:09 AM CDT (8/27) 8:21 PM CDT (8/27)
Length of Visible Light 14h 19m
Length of Day
13h 21m
Tomorrow will be 2m 39s shorter.
Waxing Crescent, 6% of the Moon is Illuminated
Today
Waxing Crescent
Sep 2
First Quarter
Sep 8
Full
Sep 15
Last Quarter
Sep 24
New

Today's Extremes

State Highs State Lows

Community

WunderPhotos

Upload Photos

1,747,894 photos uploaded!

Nearby

Air Quality

  Air Quality AQ Index Pollutant
Yesterday Moderate
PM2.5
Yesterday Good
OZONE
Current Good
PM2.5
Current Good
OZONE
Wednesday Moderate
PM2.5
Thursday Moderate
PM2.5

Snow Depth

Station Depth Elevation
No new snow has been reported.

Earthquake Activity

City Distance Mag. Time & Date
No recent earthquake activity has been reported nearby.
Minimum magnitude displayed is 2.5.

Coastal Water Temperatures

Place Temperature
No Stations Reporting

Nearby Weather Stations